CheckWX is a tool to help pilots better visualize weather data.  It is not intended as a substitute for an official pre-flight weather briefing.

19:14:09 UTC

VTBO METAR
Trat Airport
Thailand
Current

8 hours ago

VTBO 241100Z 21009KT 6000 FEW020 28/24 Q1011
Observed
Jan-24 @ 11:00 UTC
Wind
  • 210° at 9 KTS
Visibility
6,000 meters
Flight Rules
MVFR
Cloud Levels
  • Few at 2,000' AGL
Temperature
28°C / 82°F
Dewpoint
24°C / 75°F
Heat Index
32°C / 89°F
Humidity
79%
Altimeter
29.85" Hg
Pressure
1010.92 hPa
Previous

9 hours ago

VTBO 241000Z 23012KT 7000 FEW020 29/23 Q1010
Observed
Jan-24 @ 10:00 UTC
Wind
  • 230° at 12 KTS
Visibility
7,000 meters
Flight Rules
MVFR
Cloud Levels
  • Few at 2,000' AGL
Temperature
29°C / 84°F
Dewpoint
23°C / 73°F
Heat Index
32°C / 90°F
Humidity
70%
Altimeter
29.82" Hg
Pressure
1009.92 hPa
Previous

10 hours ago

VTBO 240900Z 22013KT 7000 FEW020 30/24 Q1010
Observed
Jan-24 @ 09:00 UTC
Wind
  • 220° at 13 KTS
Visibility
7,000 meters
Flight Rules
MVFR
Cloud Levels
  • Few at 2,000' AGL
Temperature
30°C / 86°F
Dewpoint
24°C / 75°F
Heat Index
35°C / 95°F
Humidity
70%
Altimeter
29.82" Hg
Pressure
1009.92 hPa